Time;durP1;ratioP1;P1;durP2;ratioP2;P2;SDS_P1;SDS_P2;PMS_P1;PMS_P2;Temp;Humidity;BMP_temperature;BMP_pressure;BME280_temperature;BME280_humidity;BME280_pressure;Samples;Min_cycle;Max_cycle;Signal;HPM_P1;HPM_P2
2021/11/07 00:00:09;;;;;;;6.20;4.50;;;23.60;36.80;;;;;;5023397;28;20419;-57
2021/11/07 00:02:50;;;;;;;6.68;5.13;;;23.60;36.90;;;;;;5024663;28;20122;-57
2021/11/07 00:05:25;;;;;;;5.70;4.95;;;23.60;36.90;;;;;;5024635;28;20048;-57
2021/11/07 00:08:10;;;;;;;7.15;5.45;;;23.60;36.90;;;;;;5021231;28;20431;-57
2021/11/07 00:10:41;;;;;;;7.03;5.63;;;23.60;36.90;;;;;;5033714;28;20052;-57
2021/11/07 00:13:17;;;;;;;;;;;23.60;36.90;;;;;;5045110;28;20092;-57
2021/11/07 00:15:45;;;;;;;7.20;5.43;;;23.60;36.90;;;;;;5044481;28;20527;-57
2021/11/07 00:18:16;;;;;;;6.55;5.15;;;23.60;36.90;;;;;;5038353;28;20404;-57
2021/11/07 00:21:04;;;;;;;6.38;5.25;;;23.60;36.90;;;;;;5034687;28;20053;-57
2021/11/07 00:23:43;;;;;;;6.60;4.80;;;23.60;36.90;;;;;;5044241;28;20166;-57
2021/11/07 00:26:31;;;;;;;7.28;5.25;;;23.60;36.90;;;;;;5044223;28;20052;-56
2021/11/07 00:29:06;;;;;;;7.03;5.32;;;23.60;37.00;;;;;;5029504;28;20088;-57
2021/11/07 00:31:53;;;;;;;6.05;4.82;;;23.60;37.00;;;;;;5023273;28;20049;-57
2021/11/07 00:37:14;;;;;;;6.40;5.25;;;23.50;37.00;;;;;;5028610;28;20080;-57
2021/11/07 00:39:47;;;;;;;6.07;4.85;;;23.50;37.00;;;;;;5028218;28;20305;-57
2021/11/07 00:42:28;;;;;;;7.00;5.10;;;23.50;37.00;;;;;;5027407;28;20069;-57
2021/11/07 00:44:59;;;;;;;6.55;4.95;;;23.50;37.60;;;;;;5027774;28;20780;-57
2021/11/07 00:47:43;;;;;;;5.70;4.80;;;23.60;37.00;;;;;;5027768;28;20075;-57
2021/11/07 00:50:15;;;;;;;6.32;5.57;;;23.50;37.00;;;;;;5021810;28;20144;-57
2021/11/07 00:55:38;;;;;;;6.50;4.88;;;23.50;37.10;;;;;;5027681;28;20472;-57
2021/11/07 00:58:09;;;;;;;6.65;4.97;;;23.50;37.00;;;;;;5025550;28;20490;-57
2021/11/07 01:00:48;;;;;;;5.97;4.88;;;23.50;37.10;;;;;;5042693;28;20467;-57
2021/11/07 01:03:18;;;;;;;6.10;4.88;;;23.50;37.10;;;;;;5046919;28;20265;-57
2021/11/07 01:05:45;;;;;;;6.22;5.10;;;23.50;37.20;;;;;;5047222;28;20570;-57
2021/11/07 01:08:13;;;;;;;6.47;5.25;;;23.50;37.20;;;;;;5040075;28;20328;-57
2021/11/07 01:10:40;;;;;;;7.60;4.95;;;23.40;37.20;;;;;;5029405;28;20062;-58
2021/11/07 01:13:08;;;;;;;5.82;4.45;;;23.50;37.20;;;;;;5027463;28;20302;-57
2021/11/07 01:15:36;;;;;;;5.93;4.97;;;23.50;37.20;;;;;;5027540;28;20127;-57
2021/11/07 01:18:05;;;;;;;5.97;5.10;;;23.50;37.30;;;;;;5026531;28;20053;-57
2021/11/07 01:20:33;;;;;;;6.53;4.85;;;23.40;37.20;;;;;;5031603;28;20049;-57
2021/11/07 01:23:15;;;;;;;5.82;4.97;;;23.50;37.30;;;;;;5026837;28;20152;-57
2021/11/07 01:25:46;;;;;;;5.75;5.05;;;23.40;37.20;;;;;;5027266;28;20084;-56
2021/11/07 01:28:15;;;;;;;6.40;5.43;;;23.50;37.30;;;;;;5023797;28;20155;-57
2021/11/07 01:30:55;;;;;;;6.20;5.05;;;23.50;37.30;;;;;;5035226;28;20724;-57
2021/11/07 01:33:26;;;;;;;8.10;5.20;;;23.50;37.30;;;;;;5047762;28;20569;-57
2021/11/07 01:36:11;;;;;;;6.13;4.80;;;23.50;37.30;;;;;;5047541;28;20098;-57
2021/11/07 01:38:50;;;;;;;7.03;5.20;;;23.50;37.30;;;;;;5038542;28;20151;-57
2021/11/07 01:41:25;;;;;;;7.68;4.35;;;23.50;37.20;;;;;;5024278;28;20603;-57
2021/11/07 01:43:55;;;;;;;6.80;5.07;;;23.50;37.30;;;;;;5026378;28;20677;-57
2021/11/07 01:46:28;;;;;;;7.35;5.22;;;23.50;37.20;;;;;;5026216;28;20556;-57
2021/11/07 01:49:06;;;;;;;6.03;4.70;;;23.50;37.20;;;;;;5022266;28;20547;-57
2021/11/07 01:51:34;;;;;;;6.68;5.32;;;23.50;37.40;;;;;;5046755;28;20126;-57
2021/11/07 01:54:21;;;;;;;5.50;4.57;;;23.50;37.20;;;;;;5045836;28;20360;-57
2021/11/07 01:56:49;;;;;;;5.68;5.10;;;23.50;37.30;;;;;;5046938;28;20261;-57
2021/11/07 01:59:16;;;;;;;6.85;4.95;;;23.50;37.20;;;;;;5033310;28;20433;-57
2021/11/07 02:01:44;;;;;;;6.47;5.30;;;23.50;37.30;;;;;;5045359;28;20143;-57
2021/11/07 02:04:11;;;;;;;5.93;4.70;;;23.50;37.20;;;;;;5045623;28;20495;-57
2021/11/07 02:06:38;;;;;;;7.30;4.45;;;23.50;37.20;;;;;;5046483;28;20084;-57
2021/11/07 02:09:05;;;;;;;7.70;5.30;;;23.50;37.20;;;;;;5027073;28;20084;-57
2021/11/07 02:11:32;;;;;;;7.13;5.03;;;23.50;37.20;;;;;;5025602;28;20040;-57
2021/11/07 02:14:01;;;;;;;5.43;4.72;;;23.50;37.30;;;;;;5026229;28;20056;-57
2021/11/07 02:16:28;;;;;;;6.68;4.72;;;23.50;37.30;;;;;;5026722;28;20518;-57
2021/11/07 02:18:56;;;;;;;5.50;4.40;;;23.50;37.20;;;;;;5020603;28;20588;-57
2021/11/07 02:21:23;;;;;;;6.38;5.25;;;23.50;37.30;;;;;;5023700;28;20490;-57
2021/11/07 02:23:50;;;;;;;6.32;4.95;;;23.50;37.30;;;;;;5026097;28;20150;-56
2021/11/07 02:26:20;;;;;;;6.78;5.30;;;23.50;37.30;;;;;;5025938;28;20140;-57
2021/11/07 02:28:48;;;;;;;5.67;4.70;;;23.50;37.30;;;;;;5023777;28;20380;-57
2021/11/07 02:31:18;;;;;;;5.43;4.30;;;23.50;37.40;;;;;;5025367;28;20386;-57
2021/11/07 02:33:45;;;;;;;5.07;4.30;;;23.50;37.30;;;;;;5025850;28;20416;-57
2021/11/07 02:36:17;;;;;;;4.88;4.30;;;23.50;37.40;;;;;;5026017;28;20049;-57
2021/11/07 02:38:45;;;;;;;4.80;4.30;;;23.50;37.30;;;;;;5019548;28;20152;-57
2021/11/07 02:41:15;;;;;;;5.32;4.80;;;23.50;37.30;;;;;;5040293;28;20135;-57
2021/11/07 02:43:49;;;;;;;6.30;4.95;;;23.50;37.20;;;;;;5045879;28;20049;-58
2021/11/07 02:46:17;;;;;;;5.05;4.47;;;23.50;37.20;;;;;;5046427;28;20402;-58
2021/11/07 02:48:59;;;;;;;5.88;4.53;;;23.60;37.30;;;;;;5031086;28;20088;-57
2021/11/07 02:51:36;;;;;;;5.45;4.20;;;23.60;37.30;;;;;;5024665;28;20753;-57
2021/11/07 02:54:08;;;;;;;5.60;4.10;;;23.50;37.20;;;;;;5025649;28;20053;-57
2021/11/07 02:56:36;;;;;;;5.78;3.85;;;23.60;37.30;;;;;;5025525;28;20076;-57
2021/11/07 02:59:04;;;;;;;5.32;4.60;;;23.60;37.30;;;;;;5025023;28;20052;-57
2021/11/07 03:01:32;;;;;;;5.85;4.50;;;23.60;37.30;;;;;;5044179;28;20048;-57
2021/11/07 03:04:05;;;;;;;5.07;4.53;;;23.60;37.30;;;;;;5044937;28;21136;-57
2021/11/07 03:06:33;;;;;;;4.97;4.45;;;23.60;37.30;;;;;;5045956;28;20647;-57
2021/11/07 03:09:04;;;;;;;5.47;4.30;;;23.60;37.30;;;;;;5028015;28;20325;-57
2021/11/07 03:11:39;;;;;;;5.57;4.43;;;23.60;37.30;;;;;;5025131;28;20056;-57
2021/11/07 03:14:08;;;;;;;4.53;4.13;;;23.60;37.20;;;;;;5025113;28;20068;-57
2021/11/07 03:16:35;;;;;;;4.93;4.25;;;23.60;37.20;;;;;;5025141;28;20486;-57
2021/11/07 03:19:02;;;;;;;4.93;4.43;;;23.60;37.20;;;;;;5022528;28;20106;-57
2021/11/07 03:21:30;;;;;;;5.55;4.60;;;23.60;37.20;;;;;;5025095;28;20057;-57
2021/11/07 03:23:58;;;;;;;6.45;5.00;;;23.60;37.10;;;;;;5025158;28;20640;-57
2021/11/07 03:26:27;;;;;;;4.32;3.90;;;23.60;37.10;;;;;;5025605;28;20155;-57
2021/11/07 03:29:01;;;;;;;5.47;4.25;;;23.60;37.10;;;;;;5018670;28;20105;-57
2021/11/07 03:31:44;;;;;;;4.40;3.92;;;23.60;37.10;;;;;;5023897;28;20103;-57
2021/11/07 03:34:19;;;;;;;4.72;4.07;;;23.70;37.20;;;;;;5025375;28;20502;-57
2021/11/07 03:36:49;;;;;;;5.55;4.50;;;23.60;37.10;;;;;;5025008;28;20103;-57
2021/11/07 03:39:18;;;;;;;4.32;3.90;;;23.60;37.10;;;;;;5017304;28;20405;-57
2021/11/07 03:41:46;;;;;;;5.00;4.25;;;23.60;37.10;;;;;;5024177;28;20479;-57
2021/11/07 03:44:15;;;;;;;4.60;3.92;;;23.60;37.20;;;;;;5025175;28;20461;-56
2021/11/07 03:46:45;;;;;;;5.00;4.30;;;23.70;37.20;;;;;;5022844;28;20049;-57
2021/11/07 03:49:12;;;;;;;5.60;4.75;;;23.60;37.20;;;;;;5023850;28;20151;-57
2021/11/07 03:51:40;;;;;;;4.93;3.90;;;23.60;37.20;;;;;;5025070;28;20465;-57
2021/11/07 03:54:08;;;;;;;5.05;4.47;;;23.60;37.10;;;;;;5026452;28;20057;-57
2021/11/07 03:56:35;;;;;;;5.63;4.47;;;23.70;37.20;;;;;;5034441;28;20474;-57
2021/11/07 03:59:03;;;;;;;4.60;3.95;;;23.70;37.20;;;;;;5022570;28;20092;-57
2021/11/07 04:01:31;;;;;;;5.22;4.63;;;23.60;37.10;;;;;;5010081;28;20454;-58
2021/11/07 04:03:59;;;;;;;4.70;4.13;;;23.60;37.20;;;;;;5028108;28;20130;-57
2021/11/07 04:06:27;;;;;;;5.50;3.65;;;23.60;37.20;;;;;;5028256;28;20045;-58
2021/11/07 04:08:54;;;;;;;4.88;4.07;;;23.60;37.20;;;;;;5028891;28;20500;-58
2021/11/07 04:11:21;;;;;;;4.40;3.80;;;23.60;37.20;;;;;;5048431;28;20076;-57
2021/11/07 04:13:49;;;;;;;4.53;3.63;;;23.60;37.20;;;;;;5052888;28;20056;-57
2021/11/07 04:16:16;;;;;;;6.82;4.72;;;23.60;37.20;;;;;;5052174;28;20044;-58
2021/11/07 04:18:45;;;;;;;4.55;3.83;;;23.60;37.20;;;;;;5039535;28;20060;-58
2021/11/07 04:21:13;;;;;;;4.38;3.97;;;23.60;37.20;;;;;;5055237;28;20076;-57
2021/11/07 04:23:41;;;;;;;5.85;4.20;;;23.60;37.20;;;;;;5050933;28;20087;-58
2021/11/07 04:26:08;;;;;;;4.43;4.03;;;23.60;37.20;;;;;;5051598;28;20076;-58
2021/11/07 04:28:35;;;;;;;5.10;4.32;;;23.60;37.20;;;;;;5038942;28;20084;-57
2021/11/07 04:31:03;;;;;;;5.80;4.10;;;23.60;37.30;;;;;;5030058;28;20091;-58
2021/11/07 04:33:30;;;;;;;4.00;3.60;;;23.60;37.30;;;;;;5028306;28;20199;-57
2021/11/07 04:35:58;;;;;;;7.40;4.30;;;23.60;37.30;;;;;;5028699;28;20051;-57
2021/11/07 04:38:27;;;;;;;4.68;3.88;;;23.60;37.40;;;;;;5021294;28;20077;-58
2021/11/07 04:40:55;;;;;;;5.93;4.07;;;23.60;37.30;;;;;;5026162;28;20320;-58
2021/11/07 04:43:23;;;;;;;5.03;4.07;;;23.60;37.40;;;;;;5027901;28;20089;-57
2021/11/07 04:45:50;;;;;;;5.03;3.78;;;23.60;37.40;;;;;;5010529;28;20462;-58
2021/11/07 04:48:19;;;;;;;4.43;3.92;;;23.60;37.30;;;;;;5026472;28;20315;-57
2021/11/07 04:50:47;;;;;;;4.82;4.30;;;23.60;37.30;;;;;;5023996;28;20312;-58
2021/11/07 04:53:15;;;;;;;4.35;3.83;;;23.60;37.30;;;;;;5027806;28;20080;-58
2021/11/07 04:55:43;;;;;;;5.07;3.95;;;23.60;37.30;;;;;;5027506;28;20541;-57
2021/11/07 04:58:11;;;;;;;4.15;3.63;;;23.60;37.30;;;;;;5027076;28;20356;-57
2021/11/07 05:00:40;;;;;;;4.53;3.80;;;23.60;37.30;;;;;;5007786;28;20564;-57
2021/11/07 05:03:08;;;;;;;4.68;4.00;;;23.60;37.30;;;;;;5010357;28;20079;-58
2021/11/07 05:05:37;;;;;;;4.20;3.80;;;23.60;37.90;;;;;;5027972;28;20049;-57
2021/11/07 05:08:06;;;;;;;4.53;4.13;;;23.60;37.30;;;;;;5025168;28;20144;-58
2021/11/07 05:10:34;;;;;;;4.93;4.22;;;23.60;37.30;;;;;;5029598;28;20140;-57
2021/11/07 05:13:03;;;;;;;4.78;4.22;;;23.60;37.30;;;;;;5027441;28;20128;-57
2021/11/07 05:15:31;;;;;;;4.03;3.30;;;23.60;37.30;;;;;;5027795;28;20134;-58
2021/11/07 05:17:58;;;;;;;3.53;3.22;;;23.60;37.30;;;;;;5025568;28;20469;-57
2021/11/07 05:20:25;;;;;;;4.85;3.92;;;23.60;37.30;;;;;;5031638;28;20140;-58
2021/11/07 05:22:53;;;;;;;4.68;4.13;;;23.70;37.30;;;;;;5027147;28;20081;-57
2021/11/07 05:25:20;;;;;;;4.63;3.95;;;23.60;37.30;;;;;;5027509;28;20502;-57
2021/11/07 05:27:48;;;;;;;5.05;4.25;;;23.60;37.30;;;;;;5026192;28;20045;-58
2021/11/07 05:30:17;;;;;;;4.30;3.60;;;23.60;37.40;;;;;;5033949;28;20139;-58
2021/11/07 05:32:45;;;;;;;4.30;3.70;;;23.60;37.30;;;;;;5026834;28;20883;-57
2021/11/07 05:35:15;;;;;;;4.70;3.97;;;23.60;37.30;;;;;;5025926;28;20583;-57
2021/11/07 05:37:42;;;;;;;4.15;3.72;;;23.60;37.30;;;;;;5026122;28;20115;-59
2021/11/07 05:40:10;;;;;;;3.88;3.30;;;23.60;37.30;;;;;;5032137;28;20163;-57
2021/11/07 05:42:37;;;;;;;6.40;4.50;;;23.60;37.40;;;;;;5027163;28;20088;-57
2021/11/07 05:45:06;;;;;;;4.43;3.97;;;23.60;37.40;;;;;;5027009;28;20048;-57
2021/11/07 05:47:33;;;;;;;5.13;3.72;;;23.60;37.40;;;;;;5026877;28;20053;-57
2021/11/07 05:50:00;;;;;;;4.72;3.63;;;23.60;37.40;;;;;;5024072;28;20084;-58
2021/11/07 05:52:29;;;;;;;4.97;3.58;;;23.60;37.40;;;;;;5025526;28;20138;-57
2021/11/07 05:54:58;;;;;;;4.03;3.53;;;23.60;37.40;;;;;;5026432;28;20056;-58
2021/11/07 05:57:25;;;;;;;4.57;3.92;;;23.60;37.40;;;;;;5026535;28;20053;-57
2021/11/07 05:59:57;;;;;;;4.72;4.00;;;23.60;37.50;;;;;;5026587;28;20504;-57
2021/11/07 06:02:24;;;;;;;4.57;3.75;;;23.60;37.50;;;;;;5046120;28;20529;-57
2021/11/07 06:04:52;;;;;;;4.13;3.65;;;23.60;37.50;;;;;;5046383;28;20428;-58
2021/11/07 06:07:19;;;;;;;4.80;4.20;;;23.60;37.50;;;;;;5046294;28;20094;-57
2021/11/07 06:09:46;;;;;;;4.95;3.88;;;23.60;37.40;;;;;;5027838;28;20063;-57
2021/11/07 06:12:14;;;;;;;4.05;3.65;;;23.60;37.30;;;;;;5026868;28;20058;-57
2021/11/07 06:14:41;;;;;;;5.28;4.18;;;23.70;37.30;;;;;;5026828;28;20150;-57
2021/11/07 06:17:08;;;;;;;5.70;3.92;;;23.70;37.30;;;;;;5026622;28;20110;-57
2021/11/07 06:19:35;;;;;;;6.18;3.60;;;23.70;37.20;;;;;;5025306;28;20134;-57
2021/11/07 06:22:03;;;;;;;5.45;3.50;;;23.70;37.20;;;;;;5026278;28;20044;-58
2021/11/07 06:24:32;;;;;;;4.30;3.78;;;23.70;37.10;;;;;;5025664;28;20118;-57
2021/11/07 06:27:00;;;;;;;4.30;3.88;;;23.70;37.00;;;;;;5026190;28;20098;-58
2021/11/07 06:29:27;;;;;;;4.43;4.00;;;23.80;36.90;;;;;;5025174;28;20151;-57
2021/11/07 06:31:56;;;;;;;3.85;3.55;;;23.80;36.90;;;;;;5026147;28;20057;-57
2021/11/07 06:34:25;;;;;;;3.90;3.50;;;23.80;36.80;;;;;;5025628;28;20061;-58
2021/11/07 06:36:53;;;;;;;4.43;3.67;;;23.80;36.70;;;;;;5026593;28;20679;-57
2021/11/07 06:39:22;;;;;;;4.00;3.60;;;23.90;36.60;;;;;;5017813;28;20048;-57
2021/11/07 06:41:50;;;;;;;4.30;3.67;;;23.90;36.50;;;;;;5026318;28;20049;-58
2021/11/07 06:44:17;;;;;;;4.15;3.50;;;24.00;36.50;;;;;;5025422;28;20371;-57
2021/11/07 06:46:44;;;;;;;3.40;3.08;;;24.00;36.40;;;;;;5025764;28;20573;-58
2021/11/07 06:49:13;;;;;;;4.22;3.78;;;24.10;36.40;;;;;;5017631;28;20261;-57
2021/11/07 06:51:43;;;;;;;3.60;3.30;;;24.10;36.30;;;;;;5025841;28;20379;-57
2021/11/07 06:54:11;;;;;;;5.03;3.53;;;24.20;36.30;;;;;;5025549;28;20056;-57
2021/11/07 06:56:40;;;;;;;4.35;3.63;;;24.20;36.20;;;;;;5026619;28;20510;-58
2021/11/07 06:59:07;;;;;;;4.13;3.40;;;24.20;36.10;;;;;;5023304;28;20049;-57
2021/11/07 07:01:37;;;;;;;4.13;3.55;;;24.30;36.10;;;;;;5025862;28;20084;-58
2021/11/07 07:04:05;;;;;;;3.85;3.28;;;24.30;36.00;;;;;;5025209;28;20453;-58
2021/11/07 07:06:35;;;;;;;3.58;3.20;;;24.40;36.00;;;;;;5025944;28;20134;-57
2021/11/07 07:09:09;;;;;;;4.30;3.13;;;24.40;35.90;;;;;;5018483;28;20165;-57
2021/11/07 07:11:47;;;;;;;3.38;3.00;;;24.50;36.50;;;;;;5025337;28;20148;-58
2021/11/07 07:14:21;;;;;;;2.63;2.42;;;24.50;35.80;;;;;;5025036;28;20155;-58
2021/11/07 07:17:01;;;;;;;3.03;2.70;;;24.50;35.70;;;;;;5024292;28;20045;-57
2021/11/07 07:19:45;;;;;;;3.45;3.17;;;24.50;35.70;;;;;;5023905;28;20145;-57
2021/11/07 07:22:48;;;;;;;2.90;2.70;;;24.60;35.70;;;;;;5024175;28;20057;-57
2021/11/07 07:25:22;;;;;;;3.38;2.92;;;24.60;35.60;;;;;;5024412;28;20461;-57
2021/11/07 07:28:00;;;;;;;3.55;2.70;;;24.70;35.60;;;;;;5024293;28;20385;-57
2021/11/07 07:30:40;;;;;;;3.28;2.97;;;24.70;35.50;;;;;;5036540;28;20059;-57
2021/11/07 07:33:27;;;;;;;3.37;3.07;;;24.70;35.50;;;;;;5045346;28;20569;-57
2021/11/07 07:35:56;;;;;;;3.05;2.75;;;24.80;35.40;;;;;;5044828;28;20132;-58
2021/11/07 07:38:24;;;;;;;2.83;2.47;;;24.80;35.40;;;;;;5035823;28;20152;-58
2021/11/07 07:40:52;;;;;;;3.03;2.83;;;24.90;35.30;;;;;;5032205;28;20084;-58
2021/11/07 07:43:20;;;;;;;3.25;2.70;;;24.90;35.30;;;;;;5044262;28;20125;-58
2021/11/07 07:45:48;;;;;;;2.92;2.50;;;24.90;35.20;;;;;;5045018;28;20052;-58
2021/11/07 07:48:16;;;;;;;3.28;2.97;;;24.90;35.20;;;;;;5036450;28;20088;-57
2021/11/07 07:50:44;;;;;;;2.70;2.50;;;24.90;35.10;;;;;;5034138;28;20497;-58
2021/11/07 07:53:13;;;;;;;3.08;2.88;;;24.90;35.10;;;;;;5044883;28;20562;-58
2021/11/07 07:55:40;;;;;;;3.05;2.72;;;24.90;35.00;;;;;;5043158;28;20126;-58
2021/11/07 07:58:07;;;;;;;2.78;2.58;;;24.90;35.00;;;;;;5041679;28;20509;-58
2021/11/07 08:00:39;;;;;;;2.80;2.60;;;24.90;35.00;;;;;;5035006;28;20049;-57
2021/11/07 08:03:06;;;;;;;2.83;2.58;;;25.00;35.00;;;;;;5045700;28;20067;-58
2021/11/07 08:05:33;;;;;;;2.97;2.78;;;25.00;35.00;;;;;;5044461;28;20329;-58
2021/11/07 08:08:01;;;;;;;2.88;2.45;;;25.00;35.00;;;;;;5040783;28;20134;-58
2021/11/07 08:10:28;;;;;;;2.67;2.47;;;25.00;35.00;;;;;;5023336;28;20057;-58
2021/11/07 08:12:55;;;;;;;3.58;2.78;;;25.00;35.00;;;;;;5024690;28;20045;-58
2021/11/07 08:15:22;;;;;;;3.05;2.80;;;25.00;35.00;;;;;;5024086;28;20108;-58
2021/11/07 08:17:49;;;;;;;2.80;2.60;;;25.00;35.00;;;;;;5022461;28;20289;-58
2021/11/07 08:20:18;;;;;;;2.70;2.50;;;25.00;35.60;;;;;;5039089;28;20672;-58
2021/11/07 08:22:45;;;;;;;3.20;2.90;;;25.00;35.00;;;;;;5044813;28;20462;-58
2021/11/07 08:25:19;;;;;;;2.92;2.60;;;25.00;35.00;;;;;;5042421;28;20159;-58
2021/11/07 08:27:47;;;;;;;2.92;2.72;;;25.00;35.00;;;;;;5043450;28;20076;-58
2021/11/07 08:30:17;;;;;;;3.28;2.90;;;25.00;35.00;;;;;;5023010;28;20506;-58
2021/11/07 08:32:44;;;;;;;;;;;25.00;34.90;;;;;;5025167;28;20510;-58
2021/11/07 08:35:12;;;;;;;3.00;2.72;;;25.00;34.90;;;;;;5024293;28;20412;-58
2021/11/07 08:37:51;;;;;;;2.85;2.63;;;25.10;34.90;;;;;;5024488;28;20076;-60
2021/11/07 08:40:27;;;;;;;3.10;2.50;;;25.10;34.90;;;;;;5023492;28;20146;-59
2021/11/07 08:43:04;;;;;;;3.65;2.92;;;25.10;34.80;;;;;;5024448;28;20512;-58
2021/11/07 09:02:33;;;;;;;3.05;2.33;;;25.50;34.70;;;;;;5027594;28;20041;-59
2021/11/07 09:05:07;;;;;;;4.18;3.05;;;25.50;34.60;;;;;;5026175;28;20099;-59
2021/11/07 09:07:53;;;;;;;6.13;2.67;;;25.50;34.50;;;;;;5026960;28;20321;-58
2021/11/07 09:10:23;;;;;;;5.80;2.80;;;25.60;34.60;;;;;;5024321;28;20080;-58
2021/11/07 09:12:51;;;;;;;2.70;2.50;;;25.70;34.50;;;;;;5027281;28;20635;-58
2021/11/07 09:15:21;;;;;;;2.83;2.63;;;25.70;34.40;;;;;;5027227;28;20049;-58
2021/11/07 09:17:49;;;;;;;3.53;2.40;;;25.80;34.40;;;;;;5025904;28;20045;-60
2021/11/07 09:20:23;;;;;;;2.78;2.58;;;25.80;34.40;;;;;;5006003;28;20462;-58
2021/11/07 09:22:56;;;;;;;2.35;2.15;;;25.80;34.30;;;;;;5027287;28;21143;-58
2021/11/07 09:25:31;;;;;;;5.25;2.63;;;25.90;34.30;;;;;;5027210;28;20229;-58
2021/11/07 09:28:03;;;;;;;4.75;3.28;;;25.90;34.20;;;;;;5025835;28;20522;-58
2021/11/07 09:30:56;;;;;;;3.00;2.58;;;26.00;34.20;;;;;;5026020;28;20049;-58
2021/11/07 09:33:33;;;;;;;4.72;2.42;;;26.00;34.70;;;;;;5027955;28;20059;-58
2021/11/07 09:36:13;;;;;;;2.70;2.50;;;26.00;34.10;;;;;;5025403;28;20099;-58
2021/11/07 09:39:07;;;;;;;6.25;2.85;;;26.00;34.20;;;;;;5022018;28;20083;-58
2021/11/07 09:41:56;;;;;;;4.30;2.95;;;26.00;34.20;;;;;;5026094;28;20053;-58
2021/11/07 09:44:19;;;;;;;5.00;3.15;;;26.00;34.30;;;;;;5025874;28;20063;-58
2021/11/07 09:46:52;;;;;;;4.13;2.97;;;25.90;34.40;;;;;;5025266;28;20095;-58
2021/11/07 09:49:24;;;;;;;3.50;2.90;;;25.90;34.50;;;;;;5028712;28;20143;-58
2021/11/07 09:51:57;;;;;;;3.17;2.75;;;25.90;34.50;;;;;;5026698;28;20056;-58
2021/11/07 09:54:25;;;;;;;3.88;2.90;;;25.90;34.60;;;;;;5026566;28;20510;-58
2021/11/07 09:56:58;;;;;;;4.65;2.97;;;25.80;34.60;;;;;;5026122;28;20356;-58
2021/11/07 09:59:26;;;;;;;4.97;3.13;;;25.80;34.60;;;;;;5018218;28;20167;-58
2021/11/07 10:02:00;;;;;;;5.03;2.72;;;25.80;34.60;;;;;;5025999;28;20084;-58
2021/11/07 10:04:30;;;;;;;3.00;2.70;;;25.80;34.60;;;;;;5026962;28;20285;-59
2021/11/07 10:07:15;;;;;;;3.85;3.03;;;25.80;34.70;;;;;;5026311;28;20110;-58
2021/11/07 10:09:43;;;;;;;3.05;2.53;;;25.80;34.60;;;;;;5028253;28;20099;-58
2021/11/07 10:12:16;;;;;;;3.33;2.92;;;25.70;34.60;;;;;;5046465;28;20049;-58
2021/11/07 10:14:56;;;;;;;3.72;2.65;;;25.70;34.60;;;;;;5046343;28;20084;-58
2021/11/07 10:17:37;;;;;;;3.33;2.97;;;25.80;34.70;;;;;;5045815;28;20084;-58
2021/11/07 10:20:30;;;;;;;4.20;2.47;;;25.80;34.70;;;;;;5019478;28;20080;-57
2021/11/07 10:23:18;;;;;;;3.53;2.78;;;25.70;34.60;;;;;;5026557;28;20498;-58
2021/11/07 10:25:56;;;;;;;6.50;2.80;;;25.80;34.70;;;;;;5025168;28;20233;-58
2021/11/07 10:28:32;;;;;;;4.78;2.80;;;25.80;34.60;;;;;;5023292;28;20547;-58
2021/11/07 10:31:16;;;;;;;3.03;2.55;;;25.70;34.60;;;;;;5024238;28;20655;-58
2021/11/07 10:34:01;;;;;;;4.55;2.63;;;25.80;34.70;;;;;;5025909;28;20417;-58
2021/11/07 10:37:05;;;;;;;2.60;2.40;;;25.80;35.20;;;;;;5026326;28;20155;-58
2021/11/07 10:39:30;;;;;;;3.67;2.65;;;25.80;34.70;;;;;;5023496;28;20494;-58
2021/11/07 10:42:15;;;;;;;5.68;2.10;;;25.80;34.60;;;;;;5025919;28;20075;-58
2021/11/07 10:45:07;;;;;;;3.30;3.00;;;25.80;34.60;;;;;;5025843;28;20135;-58
2021/11/07 10:48:02;;;;;;;3.65;2.60;;;25.80;34.60;;;;;;5025512;28;20535;-58
2021/11/07 10:53:15;;;;;;;4.15;2.58;;;25.70;34.50;;;;;;5024284;28;20550;-58
2021/11/07 10:55:49;;;;;;;6.35;2.55;;;25.70;34.60;;;;;;5025321;28;20662;-59
2021/11/07 10:58:24;;;;;;;4.38;2.65;;;25.70;35.20;;;;;;5025007;28;20052;-58
2021/11/07 11:00:51;;;;;;;3.33;3.03;;;25.70;34.60;;;;;;5022061;28;20112;-58
2021/11/07 11:03:21;;;;;;;6.80;2.45;;;25.70;34.60;;;;;;5025745;28;20459;-58
2021/11/07 11:06:07;;;;;;;4.57;2.80;;;25.70;34.60;;;;;;5023069;28;20135;-58
2021/11/07 11:08:41;;;;;;;4.20;3.13;;;25.70;34.60;;;;;;5020147;28;20759;-57
2021/11/07 11:11:26;;;;;;;3.35;2.53;;;25.70;34.60;;;;;;5023725;28;20724;-57
2021/11/07 11:14:14;;;;;;;4.40;2.53;;;25.70;34.60;;;;;;5025319;28;20063;-58
2021/11/07 11:17:04;;;;;;;2.90;2.25;;;25.70;34.70;;;;;;5026468;28;20084;-58
2021/11/07 11:19:48;;;;;;;2.85;2.58;;;25.70;34.70;;;;;;5022901;28;20748;-58
2021/11/07 11:22:38;;;;;;;2.42;2.22;;;25.70;34.70;;;;;;5025807;28;20088;-58
2021/11/07 11:25:24;;;;;;;2.40;2.20;;;25.70;34.70;;;;;;5024814;28;20132;-58
2021/11/07 11:28:03;;;;;;;2.60;2.40;;;25.70;34.70;;;;;;5021541;28;20056;-58
2021/11/07 11:30:56;;;;;;;3.22;2.70;;;25.70;34.70;;;;;;5020502;28;20553;-58
2021/11/07 11:33:33;;;;;;;2.75;2.55;;;25.70;34.70;;;;;;5025147;28;20049;-59
2021/11/07 11:36:11;;;;;;;;;;;25.70;34.70;;;;;;5025615;28;20053;-58
2021/11/07 11:38:50;;;;;;;2.55;2.35;;;25.70;34.70;;;;;;5021007;28;20346;-58
2021/11/07 11:41:27;;;;;;;2.53;2.30;;;25.70;34.70;;;;;;5022855;28;20052;-58
2021/11/07 11:43:55;;;;;;;2.63;2.42;;;25.70;35.30;;;;;;5025032;28;21032;-58
2021/11/07 11:46:48;;;;;;;3.30;3.00;;;25.60;34.70;;;;;;5025386;28;20130;-58
2021/11/07 11:52:23;;;;;;;2.92;2.63;;;25.60;34.60;;;;;;5044236;28;20080;-58
2021/11/07 11:55:04;;;;;;;2.58;2.38;;;25.60;34.60;;;;;;5043906;28;20110;-57
2021/11/07 11:58:14;;;;;;;3.47;2.15;;;25.60;34.60;;;;;;5045202;28;20302;-57
2021/11/07 12:01:02;;;;;;;2.75;2.40;;;25.60;34.70;;;;;;5024468;28;20528;-58
2021/11/07 12:03:58;;;;;;;2.60;2.40;;;25.60;34.60;;;;;;5025329;28;20555;-57
2021/11/07 12:06:50;;;;;;;2.50;2.30;;;25.60;34.60;;;;;;5024597;28;20146;-58
2021/11/07 12:09:39;;;;;;;2.75;2.50;;;25.60;34.60;;;;;;5016870;28;20099;-58
2021/11/07 12:12:15;;;;;;;2.58;2.38;;;25.60;34.60;;;;;;5024970;28;20053;-58
2021/11/07 12:15:08;;;;;;;3.03;2.70;;;25.60;34.50;;;;;;5025259;28;20048;-58
2021/11/07 12:17:39;;;;;;;2.25;2.05;;;25.60;34.50;;;;;;5024955;28;20080;-58
2021/11/07 12:20:26;;;;;;;2.50;2.30;;;25.60;34.50;;;;;;5021652;28;20088;-58
2021/11/07 12:23:21;;;;;;;2.83;2.28;;;25.60;34.50;;;;;;5023517;28;20576;-58
2021/11/07 12:25:53;;;;;;;2.60;2.40;;;25.60;34.40;;;;;;5024180;28;20156;-58
2021/11/07 12:28:44;;;;;;;3.17;2.85;;;25.60;34.50;;;;;;5025190;28;20133;-58
2021/11/07 12:31:11;;;;;;;2.92;2.13;;;25.60;34.60;;;;;;5026152;28;20578;-58
2021/11/07 12:34:16;;;;;;;2.75;2.55;;;25.60;34.50;;;;;;5028391;28;20142;-57
2021/11/07 12:42:32;;;;;;;2.67;2.47;;;25.50;34.50;;;;;;5048752;28;20748;-58
2021/11/07 12:45:28;;;;;;;2.03;1.87;;;25.50;34.50;;;;;;5048438;28;20091;-58
2021/11/07 12:48:02;;;;;;;2.75;2.55;;;25.50;35.10;;;;;;5044072;28;20053;-58
2021/11/07 12:50:48;;;;;;;2.92;2.72;;;25.50;34.50;;;;;;5023042;28;20415;-58
2021/11/07 12:53:15;;;;;;;2.53;2.33;;;25.50;34.50;;;;;;5027036;28;20575;-58
2021/11/07 12:55:44;;;;;;;2.40;2.28;;;25.50;34.60;;;;;;5027587;28;20048;-57
2021/11/07 12:58:13;;;;;;;3.53;2.30;;;25.50;34.50;;;;;;5025645;28;20057;-57
2021/11/07 13:00:42;;;;;;;2.53;2.42;;;25.50;34.60;;;;;;5023355;28;20143;-58
2021/11/07 13:03:11;;;;;;;2.92;2.72;;;25.50;34.50;;;;;;5028303;28;20537;-57
2021/11/07 13:05:40;;;;;;;2.15;2.05;;;25.50;34.50;;;;;;5027203;28;20798;-58
2021/11/07 13:08:24;;;;;;;3.00;2.65;;;25.40;34.50;;;;;;5024832;28;20126;-58
2021/11/07 13:10:59;;;;;;;4.43;3.13;;;25.40;34.50;;;;;;5033748;28;20048;-58
2021/11/07 13:13:44;;;;;;;2.63;2.50;;;25.40;34.50;;;;;;5047536;28;20571;-58
2021/11/07 13:22:23;;;;;;;2.63;2.42;;;25.40;34.60;;;;;;5027795;28;20466;-58
2021/11/07 13:27:31;;;;;;;2.83;2.63;;;25.30;34.60;;;;;;5027479;28;20075;-58
2021/11/07 13:30:04;;;;;;;2.40;2.20;;;25.30;34.70;;;;;;5030420;28;20055;-58
2021/11/07 13:32:32;;;;;;;2.92;2.72;;;25.20;34.70;;;;;;5048274;28;20454;-58
2021/11/07 13:35:09;;;;;;;2.38;2.10;;;25.20;34.70;;;;;;5047692;28;20055;-58
2021/11/07 13:37:47;;;;;;;2.50;2.25;;;25.20;34.80;;;;;;5047710;28;20102;-58
2021/11/07 13:40:24;;;;;;;3.15;2.33;;;25.20;34.90;;;;;;5013383;28;20096;-57
2021/11/07 13:42:52;;;;;;;2.72;2.53;;;25.10;34.80;;;;;;5029227;28;20623;-58
2021/11/07 13:45:29;;;;;;;2.45;2.25;;;25.20;34.90;;;;;;5026501;28;20078;-58
2021/11/07 13:48:00;;;;;;;2.35;2.25;;;25.10;34.90;;;;;;5010767;28;20092;-57
2021/11/07 13:50:33;;;;;;;2.70;2.50;;;25.20;34.90;;;;;;5032644;28;20143;-58
2021/11/07 13:53:02;;;;;;;2.88;2.58;;;25.20;34.90;;;;;;5024606;28;20193;-57
2021/11/07 13:55:33;;;;;;;2.28;2.17;;;25.10;34.90;;;;;;5026362;28;20079;-58
2021/11/07 13:58:11;;;;;;;;;;;25.10;34.90;;;;;;5025071;28;20049;-58
2021/11/07 14:00:39;;;;;;;2.55;2.35;;;25.10;35.00;;;;;;5034392;28;20039;-58